Detall de PIREP

Printer-friendly versionPDF version

[2012/12/24 05:45:00]
Flight IATA:CT1008
Pilot Number:026
Company ICAO:CAT
Aircraft Type:DC85/A
PAX:0
Aircraft Registration:CARGO
Departing Airport: OMDB
Destination Airport: VCBI
Alternate Airport:VOTV
Online: VATSIM
Route:ANVIX L223 TARDI N629 GIDAN P570 EMURU M300 MDI M641 BIKOK
Flight Level:F370
No Slew and time accel
No pause
Crash detect
Detect pilot in Cockpit between each 30 and 45 minutes
05:45 Zero fuel Weight: 191755 Lbs, Fuel Weight: 72195 Lbs
05:45 VATSIM:OMDB 240500Z 21004KT 140V240 0300 R30L//// FG SCT002 21/20 Q1018 NOSIG
05:45 VATSIM:VCBI 240510Z 02013KT 9999 SCT016 28/23 Q1010 NOSIG
05:45 VOICE CATALONIAN / INUNDACIONS SRI LANKA
05:49 Parking Brakes off
05:58 Take-off
05:58 Take off Weight: 262674 Lbs
05:58 Wind: 198º @ 004 Knots Heading: 121º
05:58 POS N25º 15´ 17´´ E055º 22´ 04´´
05:58 Flaps:2 at 166 Knots
05:58 Gear Up: 171 Knots
05:59 Flaps:1 at 212 Knots
06:00 Flaps:0 at 217 Knots
06:13 Wind:000º@007 Knots Heading: 129º Ground Speed: 430 Knots Altitude 29534 ft
06:20 TOC
06:20 Fuel Weight: 63768 Lb
06:28 Wind:260º@027 Knots Heading: 130º Ground Speed: 503 Knots Altitude 37132 ft
06:43 Wind:269º@013 Knots Heading: 130º Ground Speed: 496 Knots Altitude 37129 ft
06:58 Wind:280º@012 Knots Heading: 123º Ground Speed: 496 Knots Altitude 37132 ft
07:13 Wind:288º@015 Knots Heading: 123º Ground Speed: 508 Knots Altitude 37116 ft
07:28 Wind:295º@009 Knots Heading: 123º Ground Speed: 518 Knots Altitude 37080 ft
07:43 Wind:288º@005 Knots Heading: 123º Ground Speed: 506 Knots Altitude 37024 ft
07:58 Wind:123º@003 Knots Heading: 123º Ground Speed: 501 Knots Altitude 36961 ft
08:13 Wind:077º@006 Knots Heading: 122º Ground Speed: 501 Knots Altitude 36902 ft
08:28 Wind:054º@011 Knots Heading: 121º Ground Speed: 502Knots Altitude 36876 ft
08:43 Wind:106º@007 Knots Heading: 122º Ground Speed: 501 Knots Altitude 36820 ft
08:58 Wind:110º@008 Knots Heading: 123º Ground Speed: 500 Knots Altitude 36807 ft
09:13 Wind:075º@007 Knots Heading: 121º Ground Speed: 506 Knots Altitude 36817 ft
09:22 TOD
09:22 Fuel Weight: 23807 Lb
09:28 Wind:043º@012 Knots Heading: 160º Ground Speed: 490 Knots Altitude 27988 ft
09:43 Wind:020º@018 Knots Heading: 128º Ground Speed: 287 Knots Altitude 4839 ft
09:50 Flaps:1 at 198 Knots
09:53 Flaps:2 at 160 Knots
09:54 Gear Down: 160 Knots
09:55 Flaps:3 at 150 Knots
09:56 Flaps:4 at 134 Knots
09:57 TouchDown:Rate -169 ft/min Speed: 128 Knots
09:57 VATSIM:VCBI 240910Z 02009KT 9999 BKN016 FEW018CB SCT030 31/22 Q1006 NOSIG
09:57 Land
09:57 Wind:023º@009 Knots
09:57 Heading: 036º
09:57 Flight Duration: 03:59
09:57 Landing Weight: 211386 Lbs
09:57 POS N07º 10´ 47´´ E079º 52´ 58´´
10:02 Parking brakes on
10:02 Block to Block Duration: 04:13
10:02 Final Fuel: 19228 Lbls
10:02 Spent Fuel: 52967 Lbls
10:02 Flight Length: 1841 NM
10:02 TOD Land Length: 190 NM

Exportar CSV

Powered by Drupal - Modified by Danger4k